createdAt,value
2023-02-14T00:01:11.811Z,-0.16
2023-02-14T00:03:39.272Z,-0.16
2023-02-14T00:06:11.574Z,-0.46
2023-02-14T00:08:41.203Z,-0.64
2023-02-14T00:11:11.015Z,-0.76
2023-02-14T00:13:38.549Z,-0.63
2023-02-14T00:16:05.731Z,-0.55
2023-02-14T00:18:51.116Z,-0.42
2023-02-14T00:21:18.205Z,-0.28
2023-02-14T00:23:45.769Z,-0.29
2023-02-14T00:26:16.110Z,-0.30
2023-02-14T00:28:43.633Z,-0.29
2023-02-14T00:31:10.926Z,-0.33
2023-02-14T00:33:38.313Z,-0.43
2023-02-14T00:36:10.260Z,-0.35
2023-02-14T00:38:37.355Z,-0.50
2023-02-14T00:41:07.299Z,-0.61
2023-02-14T00:43:34.323Z,-0.71
2023-02-14T00:46:01.513Z,-0.76
2023-02-14T00:48:28.532Z,-0.83
2023-02-14T00:50:55.562Z,-0.90
2023-02-14T00:53:22.541Z,-0.97
2023-02-14T00:55:50.255Z,-0.94
2023-02-14T00:58:17.202Z,-1.03
2023-02-14T01:00:44.246Z,-1.06
2023-02-14T01:03:11.305Z,-1.07
2023-02-14T01:05:38.355Z,-1.09
2023-02-14T01:08:05.994Z,-1.02
2023-02-14T01:10:33.088Z,-1.03
2023-02-14T01:13:00.106Z,-1.04
2023-02-14T01:15:28.021Z,-1.02
2023-02-14T01:17:55.080Z,-1.05
2023-02-14T01:20:22.471Z,-1.17
2023-02-14T01:22:49.515Z,-1.21
2023-02-14T01:25:16.762Z,-0.97
2023-02-14T01:27:44.074Z,-1.16
2023-02-14T01:30:12.074Z,-1.03
2023-02-14T01:32:39.145Z,-1.03
2023-02-14T01:35:06.478Z,-0.96
2023-02-14T01:37:35.007Z,-1.10
2023-02-14T01:40:02.799Z,-0.96
2023-02-14T01:42:29.904Z,-0.88
2023-02-14T01:45:00.122Z,-0.94
2023-02-14T01:47:30.572Z,-0.90
2023-02-14T01:50:07.815Z,-0.91
2023-02-14T01:52:42.035Z,-1.06
2023-02-14T01:55:15.848Z,-1.02
2023-02-14T01:58:11.714Z,-0.98
2023-02-14T02:00:58.936Z,-0.90
2023-02-14T02:03:28.158Z,-0.86
2023-02-14T02:06:22.520Z,-0.98
2023-02-14T02:09:11.406Z,-0.96
2023-02-14T02:11:38.611Z,-1.00
2023-02-14T02:14:13.842Z,-1.07
2023-02-14T02:17:18.235Z,-1.10
2023-02-14T02:20:36.453Z,-1.06
2023-02-14T02:23:22.814Z,-1.21
2023-02-14T02:26:27.946Z,-1.41
2023-02-14T02:29:20.710Z,-1.40
2023-02-14T02:32:21.689Z,-1.58
2023-02-14T02:35:16.284Z,-1.43
2023-02-14T02:38:05.215Z,-1.38
2023-02-14T02:41:09.817Z,-1.27
2023-02-14T02:43:52.584Z,-1.45
2023-02-14T02:46:50.299Z,-1.66
2023-02-14T02:49:53.102Z,-1.70
2023-02-14T02:53:05.648Z,-1.69
2023-02-14T02:55:58.763Z,-1.79
2023-02-14T02:58:41.825Z,-1.70
2023-02-14T03:01:27.959Z,-1.24
2023-02-14T03:04:19.344Z,-0.91
2023-02-14T03:06:48.263Z,-1.28
2023-02-14T03:09:21.299Z,-1.25
2023-02-14T03:12:09.868Z,-1.17
2023-02-14T03:15:18.957Z,-1.20
2023-02-14T03:17:59.928Z,-1.22
2023-02-14T03:20:55.084Z,-1.05
2023-02-14T03:23:29.914Z,-1.08
2023-02-14T03:26:08.059Z,-1.15
2023-02-14T03:28:58.202Z,-0.94
2023-02-14T03:31:45.993Z,-1.03
2023-02-14T03:34:38.535Z,-1.02
2023-02-14T03:37:16.615Z,-1.11
2023-02-14T03:39:53.156Z,-1.30
2023-02-14T03:42:26.462Z,-1.45
2023-02-14T03:44:56.872Z,-1.36
2023-02-14T03:47:29.105Z,-1.19
2023-02-14T03:50:10.677Z,-1.28
2023-02-14T03:52:40.569Z,-1.21
2023-02-14T03:55:09.756Z,-1.33
2023-02-14T03:57:52.706Z,-1.28
2023-02-14T04:00:20.609Z,-1.08
2023-02-14T04:02:56.252Z,-0.98
2023-02-14T04:05:26.898Z,-0.98
2023-02-14T04:07:57.016Z,-1.01
2023-02-14T04:10:25.536Z,-1.10
2023-02-14T04:12:53.948Z,-1.02
2023-02-14T04:15:21.645Z,-0.91
2023-02-14T04:18:07.405Z,-0.78
2023-02-14T04:20:34.611Z,-0.80
2023-02-14T04:23:03.409Z,-0.93
2023-02-14T04:25:31.601Z,-0.94
2023-02-14T04:27:58.569Z,-1.05
2023-02-14T04:30:26.618Z,-1.24
2023-02-14T04:32:53.636Z,-1.32
2023-02-14T04:35:20.899Z,-1.25
2023-02-14T04:37:48.632Z,-1.23
2023-02-14T04:40:18.617Z,-1.29
2023-02-14T04:42:46.323Z,-1.40
2023-02-14T04:45:14.471Z,-1.48
2023-02-14T04:47:41.466Z,-1.46
2023-02-14T04:50:09.732Z,-1.20
2023-02-14T04:52:36.930Z,-0.92
2023-02-14T04:55:05.330Z,-0.94
2023-02-14T04:57:32.438Z,-0.88
2023-02-14T05:00:00.178Z,-0.91
2023-02-14T05:02:27.167Z,-0.91
2023-02-14T05:04:54.728Z,-1.19
2023-02-14T05:07:21.706Z,-1.23
2023-02-14T05:09:48.860Z,-1.41
2023-02-14T05:12:17.196Z,-1.41
2023-02-14T05:14:44.197Z,-1.73
2023-02-14T05:17:11.218Z,-1.59
2023-02-14T05:19:38.293Z,-1.64
2023-02-14T05:22:05.340Z,-1.68
2023-02-14T05:24:32.296Z,-1.70
2023-02-14T05:26:59.353Z,-1.68
2023-02-14T05:29:26.409Z,-1.57
2023-02-14T05:31:53.835Z,-1.43
2023-02-14T05:34:21.827Z,-1.35
2023-02-14T05:36:49.044Z,-1.50
2023-02-14T05:39:16.043Z,-1.37
2023-02-14T05:41:43.135Z,-1.49
2023-02-14T05:44:10.165Z,-1.46
2023-02-14T05:46:37.237Z,-1.48
2023-02-14T05:49:05.226Z,-1.31
2023-02-14T05:51:32.197Z,-1.29
2023-02-14T05:54:00.337Z,-1.20
2023-02-14T05:56:27.789Z,-1.28
2023-02-14T05:58:54.813Z,-1.23
2023-02-14T06:01:22.139Z,-1.05
2023-02-14T06:03:49.278Z,-1.23
2023-02-14T06:06:16.306Z,-1.39
2023-02-14T06:08:43.283Z,-1.37
2023-02-14T06:11:10.357Z,-1.20
2023-02-14T06:13:37.455Z,-1.05
2023-02-14T06:16:05.156Z,-1.32
2023-02-14T06:18:32.157Z,-1.36
2023-02-14T06:20:59.463Z,-1.23
2023-02-14T06:23:26.720Z,-1.08
2023-02-14T06:25:53.716Z,-0.92
2023-02-14T06:28:20.777Z,-0.85
2023-02-14T06:30:47.913Z,-0.73
2023-02-14T06:33:14.958Z,-0.60
2023-02-14T06:35:42.077Z,-0.48
2023-02-14T06:38:09.056Z,-0.69
2023-02-14T06:40:36.090Z,-0.66
2023-02-14T06:43:03.150Z,-0.44
2023-02-14T06:45:30.210Z,-0.45
2023-02-14T06:47:57.281Z,-0.30
2023-02-14T06:50:24.357Z,-0.16
2023-02-14T06:52:51.671Z,-0.07
2023-02-14T06:55:19.382Z,0.11
2023-02-14T06:57:46.495Z,0.08
2023-02-14T07:00:15.053Z,0.00
2023-02-14T07:02:42.148Z,-0.11
2023-02-14T07:05:09.283Z,0.06
2023-02-14T07:07:36.364Z,0.19
2023-02-14T07:10:04.220Z,0.18
2023-02-14T07:12:31.275Z,0.31
2023-02-14T07:14:58.233Z,0.66
2023-02-14T07:17:25.277Z,0.83
2023-02-14T07:19:52.374Z,1.03
2023-02-14T07:22:19.322Z,1.29
2023-02-14T07:24:46.400Z,1.29
2023-02-14T07:27:13.385Z,1.18
2023-02-14T07:29:40.565Z,1.54
2023-02-14T07:32:07.628Z,1.94
2023-02-14T07:34:34.734Z,2.03
2023-02-14T07:37:02.123Z,2.17
2023-02-14T07:39:29.268Z,2.35
2023-02-14T07:41:56.314Z,2.46
2023-02-14T07:44:26.438Z,2.58
2023-02-14T07:46:53.413Z,2.73
2023-02-14T07:49:20.473Z,2.76
2023-02-14T07:51:47.546Z,3.04
2023-02-14T07:54:14.627Z,3.14
2023-02-14T07:56:41.661Z,3.22
2023-02-14T07:59:08.823Z,3.23
2023-02-14T08:01:35.916Z,3.38
2023-02-14T08:04:02.970Z,3.38
2023-02-14T08:06:30.198Z,3.58
2023-02-14T08:08:57.171Z,3.76
2023-02-14T08:11:42.648Z,3.86
2023-02-14T08:14:09.931Z,3.89
2023-02-14T08:16:38.610Z,4.00
2023-02-14T08:19:06.748Z,4.28
2023-02-14T08:21:33.740Z,4.52
2023-02-14T08:24:01.053Z,4.41
2023-02-14T08:26:28.214Z,4.62
2023-02-14T08:28:55.771Z,4.73
2023-02-14T08:31:34.433Z,4.99
2023-02-14T08:34:03.303Z,4.94
2023-02-14T08:36:30.415Z,5.02
2023-02-14T08:38:57.982Z,5.09
2023-02-14T08:41:25.687Z,5.24
2023-02-14T08:43:53.612Z,5.50
2023-02-14T08:46:20.648Z,5.81
2023-02-14T08:48:50.505Z,5.48
2023-02-14T08:51:17.765Z,5.41
2023-02-14T08:53:46.468Z,5.51
2023-02-14T08:56:15.323Z,5.78
2023-02-14T08:58:42.768Z,6.09
2023-02-14T09:01:15.526Z,5.97
2023-02-14T09:03:43.991Z,6.31
2023-02-14T09:06:14.708Z,6.74
2023-02-14T09:08:42.129Z,6.78
2023-02-14T09:11:18.709Z,6.60
2023-02-14T09:13:51.792Z,6.76
2023-02-14T09:16:20.476Z,6.86
2023-02-14T09:18:48.258Z,6.87
2023-02-14T09:21:18.575Z,6.63
2023-02-14T09:23:45.576Z,6.61
2023-02-14T09:26:15.523Z,6.89
2023-02-14T09:28:44.001Z,7.30
2023-02-14T09:31:22.915Z,7.34
2023-02-14T09:34:09.849Z,7.44
2023-02-14T09:36:36.885Z,7.38
2023-02-14T09:39:04.222Z,7.52
2023-02-14T09:41:31.280Z,7.65
2023-02-14T09:44:19.393Z,7.43
2023-02-14T09:46:51.130Z,7.15
2023-02-14T09:49:23.008Z,7.42
2023-02-14T09:51:53.570Z,7.31
2023-02-14T09:54:27.720Z,7.27
2023-02-14T09:57:09.153Z,7.10
2023-02-14T09:59:48.302Z,6.88
2023-02-14T10:02:46.345Z,6.86
2023-02-14T10:05:27.185Z,7.42
2023-02-14T10:08:19.814Z,7.47
2023-02-14T10:11:12.224Z,7.76
2023-02-14T10:13:50.018Z,7.47
2023-02-14T10:16:34.176Z,7.52
2023-02-14T10:19:27.011Z,7.39
2023-02-14T10:21:58.344Z,7.38
2023-02-14T10:24:32.377Z,7.22
2023-02-14T10:27:11.411Z,7.25
2023-02-14T10:29:38.802Z,7.22
2023-02-14T10:32:14.574Z,7.11
2023-02-14T10:34:50.599Z,7.35
2023-02-14T10:37:42.618Z,7.19
2023-02-14T10:40:48.977Z,7.97
2023-02-14T10:43:32.597Z,8.06
2023-02-14T10:46:21.884Z,7.97
2023-02-14T10:49:08.391Z,8.01
2023-02-14T10:51:46.864Z,8.24
2023-02-14T10:54:19.872Z,8.46
2023-02-14T10:57:02.313Z,8.31
2023-02-14T10:59:44.920Z,8.11
2023-02-14T11:02:17.363Z,8.27
2023-02-14T11:04:47.498Z,8.22
2023-02-14T11:07:17.273Z,8.45
2023-02-14T11:09:45.793Z,8.27
2023-02-14T11:12:31.067Z,8.34
2023-02-14T11:15:31.041Z,8.35
2023-02-14T11:18:22.421Z,8.52
2023-02-14T11:21:07.858Z,8.71
2023-02-14T11:23:38.416Z,8.96
2023-02-14T11:26:11.939Z,8.81
2023-02-14T11:28:52.477Z,8.70
2023-02-14T11:31:50.519Z,8.48
2023-02-14T11:34:22.287Z,8.71
2023-02-14T11:36:49.345Z,8.87
2023-02-14T11:39:27.827Z,8.91
2023-02-14T11:41:58.184Z,8.93
2023-02-14T11:44:28.722Z,9.13
2023-02-14T11:46:57.952Z,9.19
2023-02-14T11:49:29.520Z,9.04
2023-02-14T11:51:58.963Z,9.24
2023-02-14T11:54:39.340Z,8.99
2023-02-14T11:57:32.454Z,8.87
2023-02-14T12:00:03.928Z,8.84
2023-02-14T12:02:43.711Z,9.17
2023-02-14T12:05:19.702Z,9.36
2023-02-14T12:07:50.601Z,9.23
2023-02-14T12:10:22.965Z,9.43
2023-02-14T12:13:08.854Z,9.84
2023-02-14T12:15:48.326Z,9.67
2023-02-14T12:18:18.504Z,9.88
2023-02-14T12:21:24.648Z,9.91
2023-02-14T12:24:15.942Z,9.97
2023-02-14T12:27:03.039Z,10.06
2023-02-14T12:29:44.389Z,9.94
2023-02-14T12:32:28.085Z,10.08
2023-02-14T12:35:14.878Z,10.07
2023-02-14T12:38:02.682Z,10.08
2023-02-14T12:40:56.162Z,10.08
2023-02-14T12:43:56.428Z,10.25
2023-02-14T12:46:38.895Z,10.28
2023-02-14T12:49:35.347Z,10.48
2023-02-14T12:52:08.749Z,10.67
2023-02-14T12:54:59.211Z,10.76
2023-02-14T12:57:33.054Z,10.84
2023-02-14T13:00:16.199Z,10.43
2023-02-14T13:03:12.645Z,10.71
2023-02-14T13:06:02.480Z,10.82
2023-02-14T13:08:51.067Z,11.27
2023-02-14T13:11:42.283Z,11.13
2023-02-14T13:14:31.211Z,10.89
2023-02-14T13:17:17.238Z,11.14
2023-02-14T13:19:56.735Z,11.07
2023-02-14T13:22:27.387Z,11.14
2023-02-14T13:24:59.861Z,11.10
2023-02-14T13:27:32.718Z,11.33
2023-02-14T13:30:05.110Z,11.62
2023-02-14T13:32:42.675Z,11.59
2023-02-14T13:35:17.546Z,11.76
2023-02-14T13:37:58.171Z,11.59
2023-02-14T13:40:28.177Z,11.67
2023-02-14T13:43:00.396Z,11.29
2023-02-14T13:45:40.123Z,11.29
2023-02-14T13:48:14.240Z,11.19
2023-02-14T13:51:03.168Z,11.92
2023-02-14T13:53:35.155Z,11.08
2023-02-14T13:56:12.402Z,11.07
2023-02-14T13:58:51.267Z,11.59
2023-02-14T14:01:31.746Z,11.66
2023-02-14T14:04:19.696Z,11.79
2023-02-14T14:07:03.112Z,11.67
2023-02-14T14:09:42.640Z,11.51
2023-02-14T14:12:28.767Z,11.11
2023-02-14T14:15:05.418Z,11.21
2023-02-14T14:17:38.419Z,11.07
2023-02-14T14:20:26.022Z,11.40
2023-02-14T14:22:55.231Z,11.45
2023-02-14T14:25:34.334Z,11.52
2023-02-14T14:28:02.303Z,11.62
2023-02-14T14:30:33.284Z,11.32
2023-02-14T14:33:24.275Z,12.12
2023-02-14T14:35:56.091Z,11.94
2023-02-14T14:38:23.959Z,11.75
2023-02-14T14:40:51.658Z,11.87
2023-02-14T14:43:31.686Z,12.14
2023-02-14T14:46:01.397Z,11.98
2023-02-14T14:48:44.063Z,11.88
2023-02-14T14:51:35.216Z,11.19
2023-02-14T14:54:16.584Z,10.66
2023-02-14T14:57:02.010Z,10.97
2023-02-14T14:59:35.405Z,10.90
2023-02-14T15:02:20.690Z,11.08
2023-02-14T15:04:48.303Z,10.80
2023-02-14T15:07:33.710Z,10.81
2023-02-14T15:10:01.743Z,10.74
2023-02-14T15:12:48.266Z,10.56
2023-02-14T15:15:18.327Z,10.80
2023-02-14T15:17:46.973Z,10.44
2023-02-14T15:20:22.534Z,10.99
2023-02-14T15:22:53.719Z,10.95
2023-02-14T15:25:25.927Z,10.54
2023-02-14T15:27:54.152Z,10.52
2023-02-14T15:30:23.758Z,10.78
2023-02-14T15:32:52.296Z,10.69
2023-02-14T15:35:25.895Z,11.12
2023-02-14T15:37:54.438Z,10.86
2023-02-14T15:40:28.313Z,10.66
2023-02-14T15:42:59.232Z,11.07
2023-02-14T15:45:27.885Z,10.92
2023-02-14T15:48:19.740Z,10.48
2023-02-14T15:50:50.878Z,10.34
2023-02-14T15:53:21.354Z,9.76
2023-02-14T15:55:50.377Z,9.58
2023-02-14T15:58:29.065Z,9.66
2023-02-14T16:00:56.736Z,9.56
2023-02-14T16:03:31.303Z,9.26
2023-02-14T16:05:58.823Z,8.87
2023-02-14T16:08:34.709Z,8.67
2023-02-14T16:11:09.928Z,8.37
2023-02-14T16:13:42.449Z,8.14
2023-02-14T16:16:12.048Z,8.05
2023-02-14T16:18:45.851Z,7.85
2023-02-14T16:21:28.870Z,7.77
2023-02-14T16:24:11.401Z,7.58
2023-02-14T16:26:47.679Z,7.49
2023-02-14T16:29:17.474Z,7.23
2023-02-14T16:32:19.325Z,7.18
2023-02-14T16:34:47.743Z,7.12
2023-02-14T16:37:24.862Z,7.23
2023-02-14T16:39:54.334Z,7.27
2023-02-14T16:42:21.712Z,7.10
2023-02-14T16:44:49.218Z,6.90
2023-02-14T16:47:19.014Z,6.67
2023-02-14T16:49:46.390Z,6.42
2023-02-14T16:52:17.327Z,6.32
2023-02-14T16:54:45.579Z,6.33
2023-02-14T16:57:23.379Z,6.51
2023-02-14T16:59:51.249Z,6.62
2023-02-14T17:02:19.431Z,6.63
2023-02-14T17:04:46.766Z,6.30
2023-02-14T17:07:15.825Z,6.23
2023-02-14T17:09:50.751Z,6.23
2023-02-14T17:12:23.625Z,6.18
2023-02-14T17:14:55.058Z,5.91
2023-02-14T17:17:22.479Z,5.91
2023-02-14T17:19:51.558Z,5.91
2023-02-14T17:22:20.117Z,5.85
2023-02-14T17:24:47.060Z,5.82
2023-02-14T17:27:14.304Z,5.79
2023-02-14T17:29:42.003Z,5.72
2023-02-14T17:32:14.002Z,5.75
2023-02-14T17:34:41.420Z,5.69
2023-02-14T17:37:08.632Z,5.72
2023-02-14T17:39:36.097Z,5.62
2023-02-14T17:42:03.830Z,5.58
2023-02-14T17:44:32.675Z,5.51
2023-02-14T17:47:00.421Z,5.43
2023-02-14T17:49:27.499Z,5.38
2023-02-14T17:51:56.726Z,5.32
2023-02-14T17:54:24.402Z,5.30
2023-02-14T17:56:51.889Z,5.38
2023-02-14T17:59:18.926Z,5.24
2023-02-14T18:01:47.983Z,5.15
2023-02-14T18:04:15.038Z,5.15
2023-02-14T18:06:43.333Z,5.03
2023-02-14T18:09:10.682Z,5.07
2023-02-14T18:11:40.654Z,4.88
2023-02-14T18:14:08.389Z,4.77
2023-02-14T18:16:38.200Z,4.88
2023-02-14T18:19:06.080Z,4.87
2023-02-14T18:21:36.522Z,4.89
2023-02-14T18:24:04.599Z,4.85
2023-02-14T18:26:31.737Z,4.86
2023-02-14T18:29:00.238Z,4.78
2023-02-14T18:31:27.387Z,4.82
2023-02-14T18:33:55.170Z,4.83
2023-02-14T18:36:24.674Z,4.86
2023-02-14T18:38:52.540Z,4.83
2023-02-14T18:41:20.161Z,4.83
2023-02-14T18:43:49.662Z,4.79
2023-02-14T18:46:25.339Z,4.79
2023-02-14T18:48:53.181Z,4.69
2023-02-14T18:51:26.596Z,4.71
2023-02-14T18:53:55.821Z,4.71
2023-02-14T18:56:25.840Z,4.68
2023-02-14T18:58:59.663Z,4.71
2023-02-14T19:01:30.878Z,4.63
2023-02-14T19:04:00.057Z,4.69
2023-02-14T19:06:29.698Z,4.67
2023-02-14T19:08:58.171Z,4.66
2023-02-14T19:11:31.874Z,4.61
2023-02-14T19:14:01.497Z,4.62
2023-02-14T19:16:33.802Z,4.63
2023-02-14T19:19:02.882Z,4.63
2023-02-14T19:21:37.080Z,4.63
2023-02-14T19:24:07.283Z,4.52
2023-02-14T19:26:40.523Z,4.49
2023-02-14T19:29:11.094Z,4.64
2023-02-14T19:31:41.351Z,4.73
2023-02-14T19:34:15.244Z,4.31
2023-02-14T19:36:42.260Z,4.11
2023-02-14T19:39:10.949Z,4.26
2023-02-14T19:41:38.120Z,4.08
2023-02-14T19:44:07.196Z,4.04
2023-02-14T19:46:34.608Z,3.88
2023-02-14T19:49:02.257Z,3.90
2023-02-14T19:51:34.620Z,3.88
2023-02-14T19:54:05.790Z,3.93
2023-02-14T19:56:36.703Z,3.99
2023-02-14T19:59:09.311Z,3.98
2023-02-14T20:01:39.752Z,3.98
2023-02-14T20:04:11.340Z,3.91
2023-02-14T20:06:38.690Z,3.77
2023-02-14T20:09:06.949Z,3.57
2023-02-14T20:11:52.200Z,3.54
2023-02-14T20:14:20.920Z,3.69
2023-02-14T20:16:48.716Z,3.80
2023-02-14T20:19:19.068Z,3.84
2023-02-14T20:21:48.280Z,3.80
2023-02-14T20:24:18.812Z,3.61
2023-02-14T20:26:46.027Z,3.66
2023-02-14T20:29:13.703Z,3.44
2023-02-14T20:31:44.240Z,3.41
2023-02-14T20:34:12.919Z,3.42
2023-02-14T20:36:40.819Z,3.43
2023-02-14T20:39:09.646Z,3.43
2023-02-14T20:41:37.155Z,3.37
2023-02-14T20:44:06.886Z,3.36
2023-02-14T20:46:35.031Z,3.38
2023-02-14T20:49:03.031Z,3.45
2023-02-14T20:51:30.297Z,3.49
2023-02-14T20:53:58.044Z,3.54
2023-02-14T20:56:25.064Z,3.53
2023-02-14T20:58:52.616Z,3.37
2023-02-14T21:01:24.527Z,3.58
2023-02-14T21:03:54.213Z,3.57
2023-02-14T21:06:23.903Z,3.65
2023-02-14T21:08:51.475Z,3.89
2023-02-14T21:11:20.646Z,4.00
2023-02-14T21:13:47.721Z,3.81
2023-02-14T21:16:17.497Z,3.47
2023-02-14T21:18:48.896Z,3.33
2023-02-14T21:21:20.248Z,3.33
2023-02-14T21:23:51.890Z,3.45
2023-02-14T21:26:20.378Z,3.50
2023-02-14T21:28:48.022Z,3.63
2023-02-14T21:31:17.539Z,3.56
2023-02-14T21:33:44.606Z,3.60
2023-02-14T21:36:17.389Z,3.47
2023-02-14T21:38:44.748Z,3.10
2023-02-14T21:41:14.986Z,2.96
2023-02-14T21:43:45.084Z,2.70
2023-02-14T21:46:15.259Z,2.55
2023-02-14T21:49:02.657Z,2.41
2023-02-14T21:51:31.686Z,2.30
2023-02-14T21:54:01.921Z,2.10
2023-02-14T21:56:29.565Z,1.85
2023-02-14T21:58:57.066Z,1.88
2023-02-14T22:01:32.395Z,1.87
2023-02-14T22:04:00.725Z,1.86
2023-02-14T22:06:28.646Z,1.98
2023-02-14T22:08:57.876Z,1.94
2023-02-14T22:11:27.564Z,1.86
2023-02-14T22:13:55.643Z,1.97
2023-02-14T22:16:24.787Z,2.08
2023-02-14T22:18:52.765Z,2.15
2023-02-14T22:21:22.828Z,2.07
2023-02-14T22:23:50.284Z,2.16
2023-02-14T22:26:43.294Z,2.16
2023-02-14T22:29:13.420Z,2.15
2023-02-14T22:31:43.416Z,2.17
2023-02-14T22:34:14.152Z,2.10
2023-02-14T22:36:42.021Z,2.14
2023-02-14T22:39:09.667Z,2.13
2023-02-14T22:41:38.267Z,2.06
2023-02-14T22:44:06.258Z,2.16
2023-02-14T22:46:36.885Z,2.16
2023-02-14T22:49:05.344Z,2.15
2023-02-14T22:51:32.315Z,2.17
2023-02-14T22:54:12.471Z,2.19
2023-02-14T22:56:42.830Z,2.20
2023-02-14T22:59:20.788Z,2.19
2023-02-14T23:01:49.034Z,2.35
2023-02-14T23:04:18.192Z,2.56
2023-02-14T23:06:45.443Z,2.45
2023-02-14T23:09:14.021Z,2.29
2023-02-14T23:11:43.765Z,2.43
2023-02-14T23:14:31.382Z,2.37
2023-02-14T23:17:16.950Z,2.42
2023-02-14T23:20:02.830Z,2.55
2023-02-14T23:22:35.636Z,2.55
2023-02-14T23:25:05.318Z,2.37
2023-02-14T23:27:34.833Z,2.33
2023-02-14T23:30:03.174Z,2.24
2023-02-14T23:32:30.270Z,2.25
2023-02-14T23:34:58.649Z,2.14
2023-02-14T23:37:26.257Z,2.08
2023-02-14T23:39:53.464Z,2.00
2023-02-14T23:42:20.725Z,1.92
2023-02-14T23:44:47.948Z,1.89
2023-02-14T23:47:16.364Z,1.97
2023-02-14T23:49:44.165Z,2.09
2023-02-14T23:52:13.220Z,2.21
2023-02-14T23:54:40.924Z,2.26
2023-02-14T23:57:08.739Z,2.31
2023-02-14T23:59:36.995Z,2.34
